Latest Coastal Weather Observations for Flinders Island Airport

IDV60701

Issued at 7:02 am EST Monday 27 May 2024 (issued every 10 minutes, with the page automatically refreshed every 10 minutes)

About coastal observations | Map of coastal stations | Coastal observations for VIC | Marine services | Other Formats
Station Details ID: 099005 Name: FLINDERS ISLAND AIRPORT Lat: -40.09 Lon: 148.00 Height: 9.0 m
Data from the previous 72 hours. | See also: Recent months at Flinders Island Airport
Date/Time
EST
Wind Sea
Height
m
Swell Vis
km
Cloud Weather Temp
°C
Press
MSL
hPa
Rain since
9am
mm
Dir  Spd
kts
Gust
kts
Height
m
Period
s
Dir
27/07:00am WNW 11 14 - - - - 10 Clear - 12.9 1022.3 1.0
27/06:30am WNW 9 12 - - - - 10 - - 12.5 1022.2 1.0
27/06:00am WNW 10 14 - - - - 10 - - 12.4 1022.1 1.0
27/05:30am W 10 12 - - - - 10 - - 12.6 1022.3 1.0
27/05:00am W 11 16 - - - - 10 - - 12.7 1022.2 1.0
27/04:30am W 11 14 - - - - 10 - - 12.8 1021.9 1.0
27/04:00am W 13 16 - - - - 10 Partly cloudy - 13.0 1021.9 1.0
27/03:30am NNW 4 6 - - - - 10 Partly cloudy - 9.7 1022.3 1.0
27/03:00am NW 5 6 - - - - 10 Mostly clear - 10.4 1022.6 1.0
27/02:30am N 5 7 - - - - 10 - - 10.9 1022.6 1.0
27/02:00am WNW 9 12 - - - - 10 Partly cloudy - 11.8 1022.9 1.0
27/01:30am WNW 8 10 - - - - 10 Partly cloudy - 11.2 1023.0 1.0
27/01:00am NW 6 8 - - - - 10 Partly cloudy - 11.2 1023.1 1.0
27/12:30am NE 5 6 - - - - 10 Partly cloudy - 8.9 1023.2 1.0
27/12:08am NE 5 7 - - - - 10 Partly cloudy - 9.2 1023.2 1.0
27/12:00am NE 6 6 - - - - 10 Cloudy Rain 9.3 1023.2 1.0
 
Date/Time
EST
Wind Sea
Height
m
Swell Vis
km
Cloud Weather Temp
°C
Press
MSL
hPa
Rain since
9am
mm
Dir  Spd
kts
Gust
kts
Height
m
Period
s
Dir
26/11:52pm ENE 6 6 - - - - 10 Partly cloudy - 9.3 1023.3 1.0
26/11:37pm NE 6 7 - - - - 10 Partly cloudy - 9.0 1023.4 1.0
26/11:30pm NNE 5 7 - - - - 10 Partly cloudy - 8.9 1023.3 1.0
26/11:15pm NNE 4 5 - - - - 5 Partly cloudy - 8.8 1023.6 0.6
26/11:00pm NE 5 6 - - - - 10 Partly cloudy - 8.6 1023.7 0.4
26/10:30pm NE 5 6 - - - - 10 Cloudy - 8.2 1023.6 0.4
26/10:00pm ENE 6 7 - - - - 10 Cloudy - 7.4 1023.6 0.4
26/09:30pm ENE 6 7 - - - - 10 Partly cloudy - 6.5 1023.9 0.4
26/09:00pm NE 6 7 - - - - 10 - - 7.9 1023.8 0.4
26/08:30pm NE 7 8 - - - - 10 Partly cloudy - 9.1 1023.9 0.4
26/08:00pm NE 5 6 - - - - 10 Partly cloudy - 9.2 1024.1 0.4
26/07:30pm NNW 2 6 - - - - 10 Partly cloudy - 9.9 1024.2 0.4
26/07:00pm NNE 3 5 - - - - 10 Cloudy - 9.9 1024.1 0.4
26/06:30pm E 1 4 - - - - 10 Cloudy - 9.7 1023.9 0.4
26/06:00pm ESE 3 4 - - - - 10 - - 9.9 1024.0 0.4
26/05:30pm SE 4 6 - - - - 10 Partly cloudy - 11.3 1023.8 0.4
26/05:00pm ESE 5 7 - - - - 10 Cloudy - 12.2 1023.5 0.4
26/04:30pm ESE 5 8 - - - - 10 Cloudy - 12.8 1023.7 0.4
26/04:02pm ESE 5 8 - - - - 10 Partly cloudy - 12.9 1023.6 0.4
26/04:00pm ESE 5 8 - - - - 10 Partly cloudy - 12.9 1023.5 0.4
26/03:30pm ESE 6 9 - - - - 10 Cloudy - 13.0 1023.7 0.4
26/03:00pm ESE 6 8 - - - - 10 Cloudy - 12.9 1023.9 0.4
26/02:55pm E 6 8 - - - - 10 Cloudy - 12.9 1023.9 0.4
26/02:30pm ESE 4 7 - - - - 10 Cloudy - 12.8 1024.0 0.4
26/02:00pm ESE 5 8 - - - - 10 Partly cloudy - 13.1 1024.1 0.4
26/01:30pm ESE 6 9 - - - - 10 Partly cloudy - 12.8 1024.6 0.4
26/01:00pm ESE 6 9 - - - - 10 Cloudy - 12.5 1025.0 0.4
26/12:30pm ESE 7 10 - - - - 10 Cloudy - 12.4 1025.2 0.4
26/12:00pm ESE 6 10 - - - - 10 Cloudy Recent precip. 12.2 1025.5 0.4
26/11:38am ESE 7 12 - - - - 10 Partly cloudy - 11.9 1025.7 0.4
26/11:30am ESE 7 11 - - - - 6 Partly cloudy - 12.1 1025.8 0.4
26/11:00am E 8 11 - - - - 4 Partly cloudy - 11.8 1026.3 0.2
26/10:44am E 9 13 - - - - 5 Cloudy - 11.8 1026.4 0.0
26/10:40am E 8 13 - - - - 9 Cloudy - 11.8 1026.4 0.0
26/10:30am E 8 12 - - - - 5 Partly cloudy - 11.8 1026.4 0.0
26/10:25am E 8 12 - - - - 5 Partly cloudy - 11.8 1026.4 0.0
26/10:00am ESE 7 11 - - - - 10 Cloudy - 11.8 1026.4 0.0
26/09:30am ESE 6 10 - - - - 10 Partly cloudy - 11.6 1026.4 0.0
26/09:00am E 8 12 - - - - 10 Cloudy Showers 11.5 1026.4 1.6
26/08:48am E 10 14 - - - - 10 Cloudy - 11.4 1026.4 1.4
26/08:30am E 9 15 - - - - 2 Partly cloudy - 11.1 1026.4 1.4
26/08:00am E 7 11 - - - - 4 Partly cloudy - 11.3 1026.2 0.2
26/07:54am E 6 11 - - - - 5 Partly cloudy - 11.4 1026.1 0.2
26/07:51am E 6 8 - - - - 6 Partly cloudy - 11.5 1026.1 0.2
26/07:40am E 7 11 - - - - 5 Partly cloudy - 11.5 1026.1 0.2
26/07:30am ESE 7 11 - - - - 10 Partly cloudy - 11.6 1026.1 0.0
26/07:00am E 9 13 - - - - 10 Cloudy - 11.8 1026.0 0.0
26/06:30am ESE 7 11 - - - - 10 Partly cloudy - 11.9 1025.8 0.0
26/06:00am E 6 9 - - - - 10 Mostly cloudy - 11.9 1025.8 0.0
26/05:30am E 7 11 - - - - 10 Partly cloudy - 11.6 1025.9 0.0
26/05:00am E 7 11 - - - - 10 Partly cloudy - 11.6 1025.9 0.0
26/04:30am E 7 11 - - - - 10 Partly cloudy - 11.9 1025.8 0.0
26/04:00am E 5 9 - - - - 10 Partly cloudy - 11.8 1026.0 0.0
26/03:48am E 6 9 - - - - 10 Partly cloudy - 11.9 1026.0 0.0
26/03:30am E 7 11 - - - - 10 Partly cloudy - 11.8 1026.3 0.0
26/03:00am E 5 6 - - - - 10 Mostly cloudy - 11.0 1026.7 0.0
26/02:41am E 5 8 - - - - 10 Partly cloudy - 11.6 1026.8 0.0
26/02:30am E 4 6 - - - - 10 Partly cloudy - 11.7 1026.9 0.0
26/02:00am ENE 6 8 - - - - 10 Partly cloudy - 12.0 1026.9 0.0
26/01:30am ESE 5 6 - - - - 10 Partly cloudy - 11.7 1027.1 0.0
26/01:00am E 7 9 - - - - 10 Partly cloudy - 12.1 1027.1 0.0
26/12:30am ESE 5 8 - - - - 10 Partly cloudy - 12.2 1027.2 0.0
26/12:00am ESE 4 6 - - - - 10 Cloudy - 12.2 1027.5 0.0
 
Date/Time
EST
Wind Sea
Height
m
Swell Vis
km
Cloud Weather Temp
°C
Press
MSL
hPa
Rain since
9am
mm
Dir  Spd
kts
Gust
kts
Height
m
Period
s
Dir
25/11:30pm SE 4 6 - - - - 10 Cloudy - 12.3 1027.5 0.0
25/11:00pm ESE 6 10 - - - - 10 Cloudy - 12.6 1027.5 0.0
25/10:30pm E 6 10 - - - - 10 Partly cloudy - 12.5 1027.6 0.0
25/10:00pm E 5 7 - - - - 10 Partly cloudy - 12.3 1027.9 0.0
25/09:30pm E 5 8 - - - - 10 Partly cloudy - 12.1 1027.7 0.0
25/09:00pm ESE 5 8 - - - - 10 Cloudy - 12.4 1027.9 0.0
25/08:30pm E 7 9 - - - - 10 Partly cloudy - 12.9 1027.8 0.0
25/08:00pm E 5 9 - - - - 10 Partly cloudy - 12.9 1027.9 0.0
25/07:30pm SE 2 4 - - - - 10 Partly cloudy - 13.2 1027.8 0.0
25/07:00pm SE 3 4 - - - - 10 Cloudy - 12.8 1027.7 0.0
25/06:30pm E 5 6 - - - - 10 Partly cloudy - 12.8 1027.8 0.0
25/06:00pm E 5 8 - - - - 10 Cloudy - 12.9 1027.6 0.0
25/05:30pm E 6 7 - - - - 10 Partly cloudy - 12.8 1027.5 0.0
25/05:00pm E 5 6 - - - - 10 Partly cloudy - 12.9 1027.3 0.0
25/04:30pm ENE 8 10 - - - - 10 Partly cloudy - 13.2 1027.3 0.0
25/04:00pm E 8 11 - - - - 10 Partly cloudy - 13.7 1027.4 0.0
25/03:30pm E 9 14 - - - - 10 Partly cloudy - 14.1 1027.4 0.0
25/03:00pm ENE 9 13 - - - - 10 Cloudy - 14.2 1027.4 0.0
25/02:30pm ENE 10 14 - - - - 10 Partly cloudy - 14.5 1027.4 0.0
25/02:00pm ENE 11 15 - - - - 10 Partly cloudy - 14.5 1027.5 0.0
25/01:30pm E 9 14 - - - - 10 Partly cloudy - 15.1 1027.6 0.0
25/01:00pm ENE 9 13 - - - - 10 Partly cloudy - 14.6 1027.9 0.0
25/12:30pm ENE 9 14 - - - - 10 Partly cloudy - 14.5 1028.3 0.0
25/12:00pm E 8 13 - - - - 10 Cloudy - 14.8 1028.5 0.0
25/11:30am E 8 14 - - - - 10 Partly cloudy - 14.7 1029.1 0.0
25/11:00am E 8 13 - - - - 10 Partly cloudy - 14.5 1029.5 0.0
25/10:30am ESE 9 14 - - - - 10 Cloudy - 14.0 1029.6 0.0
25/10:00am ESE 8 11 - - - - 10 Partly cloudy - 13.9 1029.7 0.0
25/09:30am ESE 7 12 - - - - 10 Partly cloudy - 13.9 1029.8 0.0
25/09:00am ESE 8 11 - - - - 10 Cloudy - 13.4 1029.8 0.0
25/08:30am E 9 15 - - - - 10 Partly cloudy - 12.9 1029.7 0.0
25/08:00am E 8 14 - - - - 10 Partly cloudy - 12.2 1029.5 0.0
25/07:30am ESE 7 13 - - - - 10 Cloudy - 12.1 1029.3 0.0
25/07:00am ESE 8 12 - - - - 10 Cloudy - 12.0 1029.1 0.0
25/06:30am ESE 7 14 - - - - 10 Cloudy - 11.9 1028.9 0.0
25/06:00am ESE 8 13 - - - - 10 Cloudy - 11.8 1028.8 0.0
25/05:30am E 8 13 - - - - 10 Cloudy - 11.8 1028.7 0.0
25/05:00am E 9 16 - - - - 10 Cloudy - 11.8 1028.7 0.0
25/04:30am E 7 14 - - - - 10 Cloudy - 11.7 1028.7 0.0
25/04:00am ESE 7 11 - - - - 10 Cloudy - 11.3 1028.9 0.0
25/03:30am ESE 6 10 - - - - 10 Cloudy - 11.2 1029.1 0.0
25/03:00am E 6 11 - - - - 10 Cloudy - 11.0 1029.2 0.0
25/02:30am ESE 7 11 - - - - 10 Partly cloudy - 11.2 1029.3 0.0
25/02:00am E 6 11 - - - - 10 Partly cloudy - 11.1 1029.4 0.0
25/01:30am E 5 8 - - - - 10 Partly cloudy - 11.0 1029.3 0.0
25/01:00am ESE 7 11 - - - - 10 Partly cloudy - 11.1 1029.4 0.0
25/12:30am ESE 7 11 - - - - 10 Cloudy - 11.0 1029.5 0.0
25/12:00am ESE 6 9 - - - - 10 Cloudy - 11.0 1029.6 0.0
 
Date/Time
EST
Wind Sea
Height
m
Swell Vis
km
Cloud Weather Temp
°C
Press
MSL
hPa
Rain since
9am
mm
Dir  Spd
kts
Gust
kts
Height
m
Period
s
Dir
24/11:30pm ESE 5 9 - - - - 10 Partly cloudy - 10.6 1029.6 0.0
24/11:00pm ESE 5 9 - - - - 10 Partly cloudy - 10.6 1029.8 0.0
24/10:30pm ESE 6 10 - - - - 10 Cloudy - 10.7 1030.0 0.0
24/10:00pm ESE 6 11 - - - - 10 Cloudy - 10.7 1030.0 0.0
24/09:30pm ESE 5 8 - - - - 10 Cloudy - 10.8 1030.1 0.0
24/09:00pm ESE 5 9 - - - - 10 Partly cloudy - 10.4 1029.9 0.0
24/08:30pm ESE 6 9 - - - - 10 Partly cloudy - 9.9 1029.9 0.0
24/08:00pm ESE 5 7 - - - - 10 - - 10.2 1030.0 0.0
24/07:30pm ESE 5 8 - - - - 10 - - 10.5 1029.8 0.0
24/07:00pm ESE 6 10 - - - - 10 Partly cloudy - 10.7 1029.6 0.0
24/06:30pm ESE 7 12 - - - - 10 - - 11.2 1029.2 0.0
24/06:00pm ESE 7 11 - - - - 10 - - 11.4 1029.0 0.0
24/05:30pm ESE 7 15 - - - - 10 Cloudy - 11.8 1028.8 0.0
24/05:00pm ESE 7 10 - - - - 10 Cloudy - 12.6 1028.7 0.0
24/04:30pm ESE 7 11 - - - - 10 Cloudy - 13.0 1028.6 0.0
24/04:00pm E 10 15 - - - - 10 Cloudy - 13.1 1028.4 0.0
24/03:30pm ESE 11 18 - - - - 10 Partly cloudy - 13.5 1028.3 0.0
24/03:00pm ESE 11 18 - - - - 10 Mostly cloudy - 13.9 1028.2 0.0
24/02:30pm E 10 15 - - - - 10 Cloudy - 14.7 1028.2 0.0
24/02:00pm ESE 10 16 - - - - 10 Partly cloudy - 14.0 1028.2 0.0
24/01:30pm ESE 9 15 - - - - 10 Partly cloudy - 13.7 1028.2 0.0
24/01:00pm SE 9 18 - - - - 10 Partly cloudy - 13.7 1028.3 0.0
24/12:30pm ESE 9 15 - - - - 10 Partly cloudy - 14.0 1028.3 0.0
24/12:00pm ESE 9 17 - - - - 10 Cloudy - 14.1 1028.4 0.0
24/11:30am SE 9 17 - - - - 10 Partly cloudy - 14.0 1028.7 0.0
24/11:00am SE 7 14 - - - - 10 Partly cloudy - 14.1 1028.8 0.0
24/10:32am S 5 6 - - - - 10 Partly cloudy - 13.2 1028.8 0.0
24/10:30am S 5 6 - - - - 10 Partly cloudy - 13.1 1028.8 0.0
24/10:00am S 2 4 - - - - 10 Partly cloudy - 13.0 1028.7 0.0
24/09:56am S 1 4 - - - - 10 Partly cloudy - 13.0 1028.7 0.0
24/09:30am WSW 4 6 - - - - 10 Partly cloudy - 12.9 1028.6 0.0
24/09:00am ENE 5 7 - - - - 10 Cloudy - 12.5 1028.4 6.8
24/08:30am E 6 8 - - - - 10 Partly cloudy - 12.3 1028.3 6.8
24/08:17am E 5 8 - - - - 10 Partly cloudy - 11.7 1028.2 6.8
24/08:00am E 5 9 - - - - 10 Partly cloudy - 11.4 1028.0 6.8
24/07:30am ESE 6 11 - - - - 10 Partly cloudy - 11.2 1027.7 6.8

Other formats

Comma delimited format used in spreadsheet applications
http://www.bom.gov.au/fwo/IDV60701/IDV60701.94980.axf

JavaScript Object Notation format (JSON) in row-major order
http://www.bom.gov.au/fwo/IDV60701/IDV60701.94980.json

Data quality

Most of these data are generated automatically and are frequently updated. Quality checks on data are not normally performed. It is possible for incorrect values to appear. Refer to information at About Latest Weather Observations and please check the disclaimer before using these data.